createdAt,value
2018-02-08T00:00:47.954Z,0
2018-02-08T00:01:50.371Z,0
2018-02-08T00:02:52.792Z,0
2018-02-08T00:03:55.482Z,0
2018-02-08T00:04:57.897Z,0
2018-02-08T00:06:00.315Z,0
2018-02-08T00:07:02.732Z,0
2018-02-08T00:08:05.423Z,0
2018-02-08T00:09:07.845Z,0
2018-02-08T00:10:10.259Z,0
2018-02-08T00:11:12.685Z,0
2018-02-08T00:12:15.090Z,0
2018-02-08T00:13:17.499Z,0
2018-02-08T00:14:19.926Z,0
2018-02-08T00:15:22.334Z,0
2018-02-08T00:16:24.754Z,0
2018-02-08T00:17:27.172Z,0
2018-02-08T00:18:29.596Z,0
2018-02-08T00:19:32.042Z,0
2018-02-08T00:20:34.440Z,0
2018-02-08T00:21:36.861Z,0
2018-02-08T00:22:39.278Z,0
2018-02-08T00:23:41.688Z,0
2018-02-08T00:24:44.111Z,0
2018-02-08T00:25:46.522Z,0
2018-02-08T00:26:48.943Z,0
2018-02-08T00:27:51.353Z,0
2018-02-08T00:28:53.769Z,0
2018-02-08T00:29:57.067Z,0
2018-02-08T00:30:59.477Z,0
2018-02-08T00:32:02.188Z,0
2018-02-08T00:33:04.609Z,0
2018-02-08T00:34:07.018Z,0
2018-02-08T00:35:09.437Z,0
2018-02-08T00:36:11.853Z,0
2018-02-08T00:37:14.276Z,0
2018-02-08T00:38:16.687Z,0
2018-02-08T00:39:19.115Z,0
2018-02-08T00:40:21.526Z,0
2018-02-08T00:41:23.949Z,0
2018-02-08T00:42:26.360Z,0
2018-02-08T00:43:28.773Z,0
2018-02-08T00:44:31.176Z,0
2018-02-08T00:45:33.590Z,0
2018-02-08T00:46:36.012Z,0
2018-02-08T00:47:38.431Z,0
2018-02-08T00:48:40.846Z,0
2018-02-08T00:49:43.260Z,0
2018-02-08T00:50:45.683Z,0
2018-02-08T00:51:48.100Z,0
2018-02-08T00:52:50.811Z,0
2018-02-08T00:53:53.206Z,0
2018-02-08T00:54:55.622Z,0
2018-02-08T00:55:58.049Z,0
2018-02-08T00:57:00.739Z,0
2018-02-08T00:58:03.150Z,0
2018-02-08T00:59:05.559Z,0
2018-02-08T01:00:07.980Z,0
2018-02-08T01:01:10.679Z,0
2018-02-08T01:02:13.101Z,0
2018-02-08T01:03:15.508Z,0
2018-02-08T01:04:17.931Z,0
2018-02-08T01:05:20.640Z,0
2018-02-08T01:06:23.058Z,0
2018-02-08T01:07:25.476Z,0
2018-02-08T01:08:27.885Z,0
2018-02-08T01:09:30.304Z,0
2018-02-08T01:10:32.720Z,0
2018-02-08T01:11:35.138Z,0
2018-02-08T01:12:37.834Z,0
2018-02-08T01:13:40.256Z,0
2018-02-08T01:14:42.679Z,0
2018-02-08T01:15:45.099Z,0
2018-02-08T01:16:47.807Z,0
2018-02-08T01:17:50.237Z,0
2018-02-08T01:18:52.643Z,0
2018-02-08T01:19:55.373Z,0
2018-02-08T01:20:57.784Z,0
2018-02-08T01:22:00.479Z,0
2018-02-08T01:23:02.903Z,0
2018-02-08T01:24:05.312Z,0
2018-02-08T01:25:07.727Z,0
2018-02-08T01:26:10.142Z,0
2018-02-08T01:27:12.556Z,0
2018-02-08T01:28:15.251Z,0
2018-02-08T01:29:17.669Z,0
2018-02-08T01:30:20.092Z,0
2018-02-08T01:31:22.502Z,0
2018-02-08T01:32:24.921Z,0
2018-02-08T01:33:27.330Z,0
2018-02-08T01:34:29.752Z,0
2018-02-08T01:35:32.162Z,0
2018-02-08T01:36:34.586Z,0
2018-02-08T01:37:36.997Z,0
2018-02-08T01:38:39.417Z,0
2018-02-08T01:39:41.837Z,0
2018-02-08T01:40:44.252Z,0
2018-02-08T01:41:46.675Z,0
2018-02-08T01:42:49.381Z,0
2018-02-08T01:43:51.788Z,0
2018-02-08T01:44:54.210Z,0
2018-02-08T01:45:56.626Z,0
2018-02-08T01:46:59.048Z,0
2018-02-08T01:48:01.464Z,0
2018-02-08T01:49:04.157Z,0
2018-02-08T01:50:06.564Z,0
2018-02-08T01:51:08.989Z,0
2018-02-08T01:52:11.410Z,0
2018-02-08T01:53:14.096Z,0
2018-02-08T01:54:16.512Z,0
2018-02-08T01:55:19.228Z,0
2018-02-08T01:56:21.648Z,0
2018-02-08T01:57:24.069Z,0
2018-02-08T01:58:26.768Z,0
2018-02-08T01:59:29.473Z,0
2018-02-08T02:00:31.895Z,0
2018-02-08T02:01:34.314Z,0
2018-02-08T02:02:36.715Z,0
2018-02-08T02:03:39.137Z,0
2018-02-08T02:04:42.105Z,0
2018-02-08T02:05:44.529Z,0
2018-02-08T02:06:46.949Z,0
2018-02-08T02:07:49.646Z,0
2018-02-08T02:08:52.060Z,0
2018-02-08T02:09:54.489Z,0
2018-02-08T02:10:57.195Z,0
2018-02-08T02:11:59.609Z,0
2018-02-08T02:13:02.025Z,0
2018-02-08T02:14:04.443Z,0
2018-02-08T02:15:06.852Z,0
2018-02-08T02:16:09.275Z,0
2018-02-08T02:17:11.689Z,0
2018-02-08T02:18:14.095Z,0
2018-02-08T02:19:16.513Z,0
2018-02-08T02:20:18.928Z,0
2018-02-08T02:21:21.347Z,0
2018-02-08T02:22:23.762Z,0
2018-02-08T02:23:26.209Z,0
2018-02-08T02:24:28.591Z,0
2018-02-08T02:25:31.008Z,0
2018-02-08T02:26:33.987Z,0
2018-02-08T02:27:36.694Z,0
2018-02-08T02:28:39.125Z,0
2018-02-08T02:29:41.538Z,0
2018-02-08T02:30:43.955Z,0
2018-02-08T02:31:46.363Z,0
2018-02-08T02:32:48.779Z,0
2018-02-08T02:33:51.200Z,0
2018-02-08T02:34:53.613Z,0
2018-02-08T02:35:56.019Z,0
2018-02-08T02:36:58.435Z,0
2018-02-08T02:38:00.866Z,0
2018-02-08T02:39:03.284Z,0
2018-02-08T02:40:05.701Z,0
2018-02-08T02:41:08.116Z,0
2018-02-08T02:42:10.531Z,0
2018-02-08T02:43:12.952Z,0
2018-02-08T02:44:15.363Z,0
2018-02-08T02:45:17.774Z,0
2018-02-08T02:46:20.766Z,0
2018-02-08T02:47:23.168Z,0
2018-02-08T02:48:25.592Z,0
2018-02-08T02:49:28.007Z,0
2018-02-08T02:50:30.429Z,0
2018-02-08T02:51:32.841Z,0
2018-02-08T02:52:35.264Z,0
2018-02-08T02:53:37.676Z,0
2018-02-08T02:54:40.093Z,0
2018-02-08T02:55:43.087Z,0
2018-02-08T02:56:45.510Z,0
2018-02-08T02:57:48.214Z,0
2018-02-08T02:58:50.921Z,0
2018-02-08T02:59:53.327Z,0
2018-02-08T03:00:55.745Z,0
2018-02-08T03:01:58.161Z,0
2018-02-08T03:03:00.569Z,0
2018-02-08T03:04:03.269Z,0
2018-02-08T03:05:05.688Z,0
2018-02-08T03:06:08.106Z,0
2018-02-08T03:07:10.529Z,0
2018-02-08T03:08:13.236Z,0
2018-02-08T03:09:15.636Z,0
2018-02-08T03:10:18.054Z,0
2018-02-08T03:11:20.467Z,0
2018-02-08T03:12:22.886Z,0
2018-02-08T03:13:25.289Z,0
2018-02-08T03:14:27.716Z,0
2018-02-08T03:15:30.138Z,0
2018-02-08T03:16:32.541Z,0
2018-02-08T03:17:35.271Z,0
2018-02-08T03:18:37.690Z,0
2018-02-08T03:19:40.108Z,0
2018-02-08T03:20:42.538Z,0
2018-02-08T03:21:45.238Z,0
2018-02-08T03:22:47.930Z,0
2018-02-08T03:23:50.352Z,0
2018-02-08T03:24:52.766Z,0
2018-02-08T03:25:55.179Z,0
2018-02-08T03:26:57.601Z,0
2018-02-08T03:28:00.009Z,0
2018-02-08T03:29:02.721Z,0
2018-02-08T03:30:05.138Z,0
2018-02-08T03:31:07.837Z,0
2018-02-08T03:32:10.257Z,0
2018-02-08T03:33:12.664Z,0
2018-02-08T03:34:15.068Z,0
2018-02-08T03:35:17.500Z,0
2018-02-08T03:36:19.907Z,0
2018-02-08T03:37:22.324Z,0
2018-02-08T03:38:25.021Z,0
2018-02-08T03:39:27.443Z,0
2018-02-08T03:40:29.843Z,0
2018-02-08T03:41:32.258Z,0
2018-02-08T03:42:34.682Z,0
2018-02-08T03:43:37.092Z,0
2018-02-08T03:44:39.514Z,0
2018-02-08T03:45:42.206Z,0
2018-02-08T03:46:44.623Z,0
2018-02-08T03:47:47.116Z,0
2018-02-08T03:48:49.839Z,0
2018-02-08T03:49:52.250Z,0
2018-02-08T03:50:54.671Z,0
2018-02-08T03:51:57.081Z,0
2018-02-08T03:52:59.507Z,0
2018-02-08T03:54:02.205Z,0
2018-02-08T03:55:04.608Z,0
2018-02-08T03:56:07.020Z,0
2018-02-08T03:57:09.434Z,0
2018-02-08T03:58:11.856Z,0
2018-02-08T03:59:14.265Z,0
2018-02-08T04:00:16.684Z,0
2018-02-08T04:01:19.104Z,0
2018-02-08T04:02:21.520Z,0
2018-02-08T04:03:23.930Z,0
2018-02-08T04:04:26.352Z,0
2018-02-08T04:05:28.762Z,0
2018-02-08T04:06:31.182Z,0
2018-02-08T04:07:33.598Z,0
2018-02-08T04:08:36.007Z,0
2018-02-08T04:09:38.430Z,0
2018-02-08T04:10:40.841Z,0
2018-02-08T04:11:43.257Z,0
2018-02-08T04:12:45.672Z,0
2018-02-08T04:13:48.091Z,0
2018-02-08T04:14:50.783Z,0
2018-02-08T04:15:53.194Z,0
2018-02-08T04:16:55.610Z,0
2018-02-08T04:17:58.026Z,0
2018-02-08T04:19:00.443Z,0
2018-02-08T04:20:03.138Z,0
2018-02-08T04:21:05.548Z,0
2018-02-08T04:22:07.967Z,0
2018-02-08T04:23:10.383Z,0
2018-02-08T04:24:12.788Z,0
2018-02-08T04:25:15.208Z,0
2018-02-08T04:26:17.625Z,0
2018-02-08T04:27:20.043Z,0
2018-02-08T04:28:22.464Z,0
2018-02-08T04:29:24.877Z,0
2018-02-08T04:30:27.294Z,0
2018-02-08T04:31:30.006Z,0
2018-02-08T04:32:32.684Z,0
2018-02-08T04:33:35.100Z,0
2018-02-08T04:34:37.524Z,0
2018-02-08T04:35:39.934Z,0
2018-02-08T04:36:42.356Z,0
2018-02-08T04:37:44.752Z,0
2018-02-08T04:38:47.170Z,0
2018-02-08T04:39:49.593Z,0
2018-02-08T04:40:52.005Z,0
2018-02-08T04:41:54.422Z,0
2018-02-08T04:42:56.832Z,0
2018-02-08T04:43:59.536Z,0
2018-02-08T04:45:01.943Z,0
2018-02-08T04:46:04.355Z,0
2018-02-08T04:47:06.760Z,0
2018-02-08T04:48:09.172Z,0
2018-02-08T04:49:11.586Z,0
2018-02-08T04:50:14.003Z,0
2018-02-08T04:51:16.413Z,0
2018-02-08T04:52:18.828Z,0
2018-02-08T04:53:21.241Z,0
2018-02-08T04:54:23.659Z,0
2018-02-08T04:55:26.074Z,0
2018-02-08T04:56:28.485Z,0
2018-02-08T04:57:30.897Z,0
2018-02-08T04:58:33.312Z,0
2018-02-08T04:59:35.715Z,0
2018-02-08T05:00:38.138Z,0
2018-02-08T05:01:40.554Z,0
2018-02-08T05:02:42.968Z,0
2018-02-08T05:03:45.374Z,0
2018-02-08T05:04:47.794Z,0
2018-02-08T05:05:50.477Z,0
2018-02-08T05:06:52.897Z,0
2018-02-08T05:07:55.319Z,0
2018-02-08T05:08:57.727Z,0
2018-02-08T05:10:00.188Z,0
2018-02-08T05:11:02.564Z,0
2018-02-08T05:12:04.979Z,0
2018-02-08T05:13:07.383Z,0
2018-02-08T05:14:09.796Z,0
2018-02-08T05:15:12.215Z,0
2018-02-08T05:16:14.626Z,0
2018-02-08T05:17:17.321Z,0
2018-02-08T05:18:19.737Z,0
2018-02-08T05:19:22.438Z,0
2018-02-08T05:20:24.860Z,0
2018-02-08T05:21:27.559Z,0
2018-02-08T05:22:29.957Z,0
2018-02-08T05:23:32.381Z,0
2018-02-08T05:24:34.797Z,0
2018-02-08T05:25:37.496Z,0
2018-02-08T05:26:39.917Z,0
2018-02-08T05:27:42.315Z,0
2018-02-08T05:28:44.726Z,0
2018-02-08T05:29:47.156Z,0
2018-02-08T05:30:49.849Z,0
2018-02-08T05:31:52.260Z,0
2018-02-08T05:32:54.700Z,0
2018-02-08T05:33:57.083Z,0
2018-02-08T05:34:59.506Z,0
2018-02-08T05:36:01.921Z,0
2018-02-08T05:37:04.324Z,0
2018-02-08T05:38:06.732Z,0
2018-02-08T05:39:09.463Z,0
2018-02-08T05:40:11.876Z,0
2018-02-08T05:41:14.279Z,0
2018-02-08T05:42:16.701Z,0
2018-02-08T05:43:19.395Z,0
2018-02-08T05:44:21.803Z,0
2018-02-08T05:45:24.506Z,0
2018-02-08T05:46:27.476Z,0
2018-02-08T05:47:30.172Z,0
2018-02-08T05:48:32.602Z,0
2018-02-08T05:49:35.010Z,0
2018-02-08T05:50:37.419Z,0
2018-02-08T05:51:39.831Z,0
2018-02-08T05:52:42.244Z,0
2018-02-08T05:53:44.674Z,0
2018-02-08T05:54:47.088Z,0
2018-02-08T05:55:49.775Z,0
2018-02-08T05:56:52.193Z,0
2018-02-08T05:57:54.594Z,0
2018-02-08T05:58:57.005Z,0
2018-02-08T05:59:59.698Z,0
2018-02-08T06:01:02.101Z,0
2018-02-08T06:02:04.801Z,0
2018-02-08T06:03:07.496Z,0
2018-02-08T06:04:09.910Z,0
2018-02-08T06:05:12.331Z,0
2018-02-08T06:06:14.736Z,0
2018-02-08T06:07:17.155Z,0
2018-02-08T06:08:19.572Z,0
2018-02-08T06:09:21.984Z,0
2018-02-08T06:10:24.684Z,4
2018-02-08T06:11:27.101Z,0
2018-02-08T06:12:29.514Z,0
2018-02-08T06:13:31.922Z,4
2018-02-08T06:14:34.355Z,0
2018-02-08T06:15:36.763Z,4
2018-02-08T06:16:39.168Z,4
2018-02-08T06:17:41.591Z,8
2018-02-08T06:18:43.992Z,8
2018-02-08T06:19:46.414Z,8
2018-02-08T06:20:48.836Z,12
2018-02-08T06:21:51.238Z,12
2018-02-08T06:22:53.643Z,12
2018-02-08T06:23:56.062Z,20
2018-02-08T06:24:58.472Z,20
2018-02-08T06:26:00.881Z,28
2018-02-08T06:27:03.288Z,32
2018-02-08T06:28:05.698Z,36
2018-02-08T06:29:08.117Z,40
2018-02-08T06:30:10.532Z,48
2018-02-08T06:31:12.947Z,56
2018-02-08T06:32:15.361Z,68
2018-02-08T06:33:17.769Z,76
2018-02-08T06:34:20.187Z,88
2018-02-08T06:35:22.610Z,96
2018-02-08T06:36:25.020Z,112
2018-02-08T06:37:27.434Z,124
2018-02-08T06:38:29.845Z,140
2018-02-08T06:39:32.262Z,160
2018-02-08T06:40:34.672Z,176
2018-02-08T06:41:37.086Z,200
2018-02-08T06:42:39.500Z,220
2018-02-08T06:43:41.924Z,244
2018-02-08T06:44:44.338Z,268
2018-02-08T06:45:46.752Z,292
2018-02-08T06:46:49.172Z,320
2018-02-08T06:47:51.576Z,352
2018-02-08T06:48:53.995Z,380
2018-02-08T06:49:56.708Z,416
2018-02-08T06:50:59.117Z,448
2018-02-08T06:52:01.528Z,484
2018-02-08T06:53:04.234Z,524
2018-02-08T06:54:06.929Z,564
2018-02-08T06:55:09.630Z,604
2018-02-08T06:56:12.631Z,648
2018-02-08T06:57:15.040Z,688
2018-02-08T06:58:17.461Z,732
2018-02-08T06:59:19.878Z,776
2018-02-08T07:00:22.297Z,824
2018-02-08T07:01:25.284Z,868
2018-02-08T07:02:27.686Z,916
2018-02-08T07:03:30.107Z,964
2018-02-08T07:04:32.517Z,1016
2018-02-08T07:05:34.929Z,1064
2018-02-08T07:06:37.343Z,1112
2018-02-08T07:07:40.040Z,1164
2018-02-08T07:08:42.451Z,1216
2018-02-08T07:09:44.858Z,1268
2018-02-08T07:10:47.263Z,1324
2018-02-08T07:11:49.694Z,1372
2018-02-08T07:12:52.100Z,1432
2018-02-08T07:13:54.518Z,1488
2018-02-08T07:14:57.215Z,1564
2018-02-08T07:15:59.633Z,1660
2018-02-08T07:17:02.041Z,1948
2018-02-08T07:18:04.465Z,2416
2018-02-08T07:19:06.869Z,2592
2018-02-08T07:20:09.275Z,2604
2018-02-08T07:21:11.703Z,2664
2018-02-08T07:22:14.108Z,2984
2018-02-08T07:23:16.527Z,3316
2018-02-08T07:24:18.936Z,3364
2018-02-08T07:25:21.346Z,3960
2018-02-08T07:26:23.765Z,4208
2018-02-08T07:27:26.181Z,4320
2018-02-08T07:28:28.883Z,4856
2018-02-08T07:29:31.293Z,5284
2018-02-08T07:30:33.714Z,5328
2018-02-08T07:31:36.126Z,5596
2018-02-08T07:32:38.554Z,6060
2018-02-08T07:33:41.235Z,6548
2018-02-08T07:34:43.651Z,7384
2018-02-08T07:35:46.071Z,8412
2018-02-08T07:36:48.776Z,8592
2018-02-08T07:37:51.183Z,8356
2018-02-08T07:38:53.601Z,8216
2018-02-08T07:39:56.011Z,8452
2018-02-08T07:40:58.436Z,8892
2018-02-08T07:42:00.845Z,9080
2018-02-08T07:43:03.274Z,8936
2018-02-08T07:44:05.971Z,9332
2018-02-08T07:45:08.393Z,9860
2018-02-08T07:46:10.810Z,9860
2018-02-08T07:47:13.228Z,10060
2018-02-08T07:48:15.650Z,10408
2018-02-08T07:49:18.360Z,10684
2018-02-08T07:50:20.780Z,9500
2018-02-08T07:51:23.201Z,8072
2018-02-08T07:52:25.607Z,9764
2018-02-08T07:53:28.033Z,11476
2018-02-08T07:54:30.749Z,12512
2018-02-08T07:55:33.166Z,13808
2018-02-08T07:56:35.587Z,15072
2018-02-08T07:57:38.636Z,15136
2018-02-08T07:58:41.040Z,16128
2018-02-08T07:59:43.476Z,18912
2018-02-08T08:00:45.891Z,22592
2018-02-08T08:01:48.309Z,21824
2018-02-08T08:02:50.742Z,17728
2018-02-08T08:03:53.188Z,15040
2018-02-08T08:04:55.890Z,17280
2018-02-08T08:05:58.318Z,21088
2018-02-08T08:07:00.744Z,20896
2018-02-08T08:08:03.748Z,19264
2018-02-08T08:09:06.156Z,19168
2018-02-08T08:10:08.579Z,23744
2018-02-08T08:11:11.000Z,25056
2018-02-08T08:12:13.418Z,24704
2018-02-08T08:13:15.840Z,24160
2018-02-08T08:14:18.546Z,24160
2018-02-08T08:15:21.248Z,25792
2018-02-08T08:16:23.688Z,25952
2018-02-08T08:17:26.395Z,23488
2018-02-08T08:18:28.815Z,22848
2018-02-08T08:19:31.530Z,28512
2018-02-08T08:20:34.244Z,30176
2018-02-08T08:21:36.677Z,25568
2018-02-08T08:22:39.109Z,23072
2018-02-08T08:23:41.525Z,22080
2018-02-08T08:24:43.947Z,20608
2018-02-08T08:25:46.383Z,24288
2018-02-08T08:26:48.801Z,30272
2018-02-08T08:27:51.519Z,34048
2018-02-08T08:28:53.947Z,32064
2018-02-08T08:29:56.366Z,29248
2018-02-08T08:30:58.810Z,31552
2018-02-08T08:32:01.235Z,30656
2018-02-08T08:33:03.930Z,30720
2018-02-08T08:34:06.363Z,29632
2018-02-08T08:35:08.800Z,28000
2018-02-08T08:36:11.218Z,24992
2018-02-08T08:37:13.651Z,23552
2018-02-08T08:38:16.358Z,23264
2018-02-08T08:39:18.779Z,23680
2018-02-08T08:40:21.199Z,24224
2018-02-08T08:41:23.617Z,24256
2018-02-08T08:42:26.048Z,23904
2018-02-08T08:43:28.479Z,23968
2018-02-08T08:44:30.959Z,24544
2018-02-08T08:45:33.333Z,24672
2018-02-08T08:46:35.762Z,24608
2018-02-08T08:47:38.197Z,24672
2018-02-08T08:48:40.626Z,24960
2018-02-08T08:49:43.049Z,26432
2018-02-08T08:50:45.488Z,27136
2018-02-08T08:51:47.911Z,26560
2018-02-08T08:52:50.342Z,26208
2018-02-08T08:53:52.772Z,26080
2018-02-08T08:54:55.199Z,26656
2018-02-08T08:55:57.632Z,29536
2018-02-08T08:57:00.055Z,34368
2018-02-08T08:58:02.753Z,36256
2018-02-08T08:59:05.198Z,36576
2018-02-08T09:00:07.626Z,36768
2018-02-08T09:01:10.052Z,42144
2018-02-08T09:02:12.485Z,46240
2018-02-08T09:03:14.911Z,51072
2018-02-08T09:04:17.357Z,51360
2018-02-08T09:05:19.776Z,52256
2018-02-08T09:06:22.222Z,53504
2018-02-08T09:07:24.647Z,50528
2018-02-08T09:08:27.077Z,49344
2018-02-08T09:09:29.525Z,53088
2018-02-08T09:10:32.245Z,54048
2018-02-08T09:11:34.680Z,53760
2018-02-08T09:12:37.115Z,54784
2018-02-08T09:13:39.535Z,58240
2018-02-08T09:14:42.251Z,55264
2018-02-08T09:15:44.694Z,48800
2018-02-08T09:16:47.116Z,48928
2018-02-08T09:17:49.548Z,51008
2018-02-08T09:18:51.978Z,52640
2018-02-08T09:19:54.399Z,52288
2018-02-08T09:20:56.841Z,58336
2018-02-08T09:21:59.552Z,57984
2018-02-08T09:23:02.251Z,51936
2018-02-08T09:24:04.680Z,54432
2018-02-08T09:25:07.116Z,60352
2018-02-08T09:26:09.548Z,58944
2018-02-08T09:27:11.976Z,54368
2018-02-08T09:28:14.408Z,53088
2018-02-08T09:29:16.839Z,56384
2018-02-08T09:30:19.277Z,60864
2018-02-08T09:31:22.000Z,59488
2018-02-08T09:32:25.016Z,59776
2018-02-08T09:33:27.424Z,70208
2018-02-08T09:34:29.854Z,72928
2018-02-08T09:35:32.856Z,67680
2018-02-08T09:36:35.282Z,62496
2018-02-08T09:37:37.730Z,56768
2018-02-08T09:38:40.161Z,53248
2018-02-08T09:39:42.868Z,60736
2018-02-08T09:40:45.596Z,65728
2018-02-08T09:41:48.026Z,66368
2018-02-08T09:42:50.454Z,68992
2018-02-08T09:43:52.894Z,78912
2018-02-08T09:44:55.322Z,84928
2018-02-08T09:45:57.748Z,82304
2018-02-08T09:47:00.191Z,71328
2018-02-08T09:48:02.629Z,64160
2018-02-08T09:49:05.050Z,61088
2018-02-08T09:50:07.486Z,53952
2018-02-08T09:51:09.919Z,55616
2018-02-08T09:52:12.357Z,52256
2018-02-08T09:53:14.782Z,55872
2018-02-08T09:54:17.212Z,64864
2018-02-08T09:55:19.647Z,68320
2018-02-08T09:56:22.091Z,68992
2018-02-08T09:57:24.517Z,71584
2018-02-08T09:58:26.958Z,68256
2018-02-08T09:59:29.388Z,68096
2018-02-08T10:00:31.829Z,60096
2018-02-08T10:01:34.548Z,53952
2018-02-08T10:02:36.980Z,51136
2018-02-08T10:03:39.691Z,46880
2018-02-08T10:04:42.121Z,45056
2018-02-08T10:05:44.566Z,42048
2018-02-08T10:06:46.997Z,40320
2018-02-08T10:07:49.722Z,38336
2018-02-08T10:08:52.153Z,38336
2018-02-08T10:09:54.650Z,43264
2018-02-08T10:10:57.019Z,51488
2018-02-08T10:11:59.467Z,55840
2018-02-08T10:13:01.898Z,60256
2018-02-08T10:14:04.332Z,61888
2018-02-08T10:15:06.760Z,59616
2018-02-08T10:16:09.194Z,60480
2018-02-08T10:17:11.620Z,63200
2018-02-08T10:18:14.060Z,65152
2018-02-08T10:19:16.488Z,61248
2018-02-08T10:20:19.208Z,61376
2018-02-08T10:21:21.639Z,61856
2018-02-08T10:22:24.075Z,56992
2018-02-08T10:23:26.518Z,56416
2018-02-08T10:24:29.244Z,53408
2018-02-08T10:25:31.674Z,50240
2018-02-08T10:26:34.107Z,56256
2018-02-08T10:27:36.548Z,53568
2018-02-08T10:28:39.281Z,51808
2018-02-08T10:29:41.717Z,63040
2018-02-08T10:30:44.168Z,66944
2018-02-08T10:31:47.267Z,64448
2018-02-08T10:32:49.706Z,49312
2018-02-08T10:33:52.139Z,39328
2018-02-08T10:34:54.580Z,38912
2018-02-08T10:35:57.026Z,42784
2018-02-08T10:36:59.735Z,52768
2018-02-08T10:38:02.172Z,61056
2018-02-08T10:39:04.617Z,52128
2018-02-08T10:40:07.044Z,40224
2018-02-08T10:41:09.473Z,39232
2018-02-08T10:42:11.905Z,38592
2018-02-08T10:43:14.333Z,40512
2018-02-08T10:44:16.779Z,45568
2018-02-08T10:45:19.505Z,55904
2018-02-08T10:46:21.919Z,61888
2018-02-08T10:47:24.360Z,57152
2018-02-08T10:48:26.801Z,56128
2018-02-08T10:49:29.241Z,57952
2018-02-08T10:50:31.975Z,56576
2018-02-08T10:51:34.412Z,56832
2018-02-08T10:52:36.848Z,52704
2018-02-08T10:53:39.299Z,54848
2018-02-08T10:54:41.724Z,59008
2018-02-08T10:55:44.154Z,62432
2018-02-08T10:56:46.592Z,61248
2018-02-08T10:57:49.300Z,62464
2018-02-08T10:58:51.743Z,61024
2018-02-08T10:59:54.179Z,60160
2018-02-08T11:00:56.614Z,60224
2018-02-08T11:01:59.343Z,59936
2018-02-08T11:03:01.773Z,58720
2018-02-08T11:04:04.219Z,59232
2018-02-08T11:05:06.653Z,58400
2018-02-08T11:06:09.085Z,59680
2018-02-08T11:07:11.528Z,60032
2018-02-08T11:08:13.958Z,56928
2018-02-08T11:09:16.386Z,57248
2018-02-08T11:10:18.817Z,58432
2018-02-08T11:11:21.245Z,57312
2018-02-08T11:12:23.688Z,59904
2018-02-08T11:13:26.401Z,60480
2018-02-08T11:14:28.844Z,57024
2018-02-08T11:15:31.284Z,52896
2018-02-08T11:16:33.720Z,53120
2018-02-08T11:17:36.461Z,52704
2018-02-08T11:18:38.910Z,53856
2018-02-08T11:19:41.364Z,54432
2018-02-08T11:20:43.762Z,53088
2018-02-08T11:21:46.504Z,52096
2018-02-08T11:22:48.931Z,55168
2018-02-08T11:23:51.369Z,57568
2018-02-08T11:24:53.804Z,54432
2018-02-08T11:25:56.241Z,56160
2018-02-08T11:26:58.675Z,61568
2018-02-08T11:28:01.118Z,62496
2018-02-08T11:29:03.545Z,60224
2018-02-08T11:30:05.985Z,61760
2018-02-08T11:31:08.425Z,62816
2018-02-08T11:32:10.856Z,59616
2018-02-08T11:33:13.295Z,59264
2018-02-08T11:34:16.022Z,65696
2018-02-08T11:35:18.446Z,65952
2018-02-08T11:36:20.886Z,66368
2018-02-08T11:37:23.315Z,64928
2018-02-08T11:38:25.752Z,62496
2018-02-08T11:39:28.189Z,59232
2018-02-08T11:40:30.622Z,56544
2018-02-08T11:41:33.338Z,59296
2018-02-08T11:42:36.086Z,62528
2018-02-08T11:43:38.529Z,66912
2018-02-08T11:44:40.972Z,71136
2018-02-08T11:45:43.401Z,69536
2018-02-08T11:46:45.843Z,71840
2018-02-08T11:47:48.324Z,76800
2018-02-08T11:48:50.771Z,78048
2018-02-08T11:49:53.200Z,75968
2018-02-08T11:50:55.645Z,75648
2018-02-08T11:51:58.644Z,76096
2018-02-08T11:53:01.086Z,75648
2018-02-08T11:54:03.529Z,76160
2018-02-08T11:55:05.950Z,77632
2018-02-08T11:56:08.389Z,68928
2018-02-08T11:57:11.131Z,65920
2018-02-08T11:58:13.575Z,66144
2018-02-08T11:59:16.011Z,70208
2018-02-08T12:00:18.478Z,68512
2018-02-08T12:01:20.911Z,68032
2018-02-08T12:02:23.362Z,69376
2018-02-08T12:03:25.798Z,67584
2018-02-08T12:04:28.233Z,65312
2018-02-08T12:05:30.666Z,70208
2018-02-08T12:06:33.107Z,73120
2018-02-08T12:07:35.529Z,68608
2018-02-08T12:08:37.967Z,62816
2018-02-08T12:09:40.413Z,63040
2018-02-08T12:10:42.848Z,63968
2018-02-08T12:11:45.294Z,65536
2018-02-08T12:12:47.731Z,67360
2018-02-08T12:13:50.175Z,67200
2018-02-08T12:14:52.614Z,62560
2018-02-08T12:15:55.059Z,57920
2018-02-08T12:16:57.486Z,54688
2018-02-08T12:17:59.929Z,54016
2018-02-08T12:19:02.371Z,51616
2018-02-08T12:20:04.807Z,54880
2018-02-08T12:21:07.536Z,56736
2018-02-08T12:22:09.971Z,53760
2018-02-08T12:23:12.415Z,50656
2018-02-08T12:24:14.852Z,51648
2018-02-08T12:25:17.581Z,53664
2018-02-08T12:26:20.018Z,54272
2018-02-08T12:27:22.463Z,54176
2018-02-08T12:28:24.899Z,49984
2018-02-08T12:29:27.337Z,49760
2018-02-08T12:30:29.777Z,52576
2018-02-08T12:31:32.209Z,52480
2018-02-08T12:32:34.645Z,49120
2018-02-08T12:33:37.074Z,47712
2018-02-08T12:34:39.795Z,49056
2018-02-08T12:35:42.240Z,50400
2018-02-08T12:36:44.686Z,57248
2018-02-08T12:37:47.120Z,57792
2018-02-08T12:38:49.562Z,57600
2018-02-08T12:39:51.994Z,55040
2018-02-08T12:40:54.434Z,51040
2018-02-08T12:41:56.867Z,51840
2018-02-08T12:42:59.313Z,55264
2018-02-08T12:44:01.747Z,61536
2018-02-08T12:45:04.194Z,66528
2018-02-08T12:46:06.633Z,66176
2018-02-08T12:47:09.072Z,63008
2018-02-08T12:48:11.504Z,62944
2018-02-08T12:49:13.946Z,62656
2018-02-08T12:50:16.402Z,60480
2018-02-08T12:51:18.823Z,54656
2018-02-08T12:52:21.251Z,55520
2018-02-08T12:53:23.697Z,61120
2018-02-08T12:54:26.139Z,61344
2018-02-08T12:55:28.580Z,63584
2018-02-08T12:56:31.020Z,66848
2018-02-08T12:57:33.461Z,69888
2018-02-08T12:58:35.890Z,73024
2018-02-08T12:59:38.339Z,71392
2018-02-08T13:00:40.774Z,71424
2018-02-08T13:01:43.214Z,69408
2018-02-08T13:02:45.657Z,71360
2018-02-08T13:03:48.091Z,70432
2018-02-08T13:04:50.542Z,71744
2018-02-08T13:05:53.030Z,74304
2018-02-08T13:06:55.423Z,69280
2018-02-08T13:07:58.172Z,63680
2018-02-08T13:09:00.595Z,60544
2018-02-08T13:10:03.040Z,57472
2018-02-08T13:11:05.471Z,63264
2018-02-08T13:12:07.905Z,70784
2018-02-08T13:13:10.343Z,77248
2018-02-08T13:14:12.777Z,76096
2018-02-08T13:15:15.506Z,75616
2018-02-08T13:16:17.959Z,75680
2018-02-08T13:17:20.395Z,68192
2018-02-08T13:18:22.830Z,64608
2018-02-08T13:19:25.268Z,63328
2018-02-08T13:20:27.702Z,56064
2018-02-08T13:21:30.142Z,58720
2018-02-08T13:22:32.871Z,61184
2018-02-08T13:23:35.307Z,63232
2018-02-08T13:24:37.746Z,57568
2018-02-08T13:25:40.186Z,44576
2018-02-08T13:26:42.630Z,30912
2018-02-08T13:27:45.347Z,27648
2018-02-08T13:28:47.786Z,32064
2018-02-08T13:29:50.221Z,34144
2018-02-08T13:30:52.675Z,30624
2018-02-08T13:31:55.111Z,26176
2018-02-08T13:32:57.536Z,25600
2018-02-08T13:33:59.975Z,29408
2018-02-08T13:35:02.428Z,40512
2018-02-08T13:36:04.855Z,41216
2018-02-08T13:37:07.292Z,36800
2018-02-08T13:38:09.724Z,40864
2018-02-08T13:39:12.165Z,36800
2018-02-08T13:40:14.603Z,38368
2018-02-08T13:41:17.051Z,38240
2018-02-08T13:42:19.482Z,30400
2018-02-08T13:43:22.205Z,20000
2018-02-08T13:44:24.656Z,29344
2018-02-08T13:45:27.370Z,35648
2018-02-08T13:46:29.813Z,37312
2018-02-08T13:47:32.519Z,36736
2018-02-08T13:48:34.960Z,38176
2018-02-08T13:49:37.398Z,40224
2018-02-08T13:50:39.836Z,37568
2018-02-08T13:51:42.265Z,36768
2018-02-08T13:52:44.696Z,32896
2018-02-08T13:53:47.140Z,33568
2018-02-08T13:54:49.576Z,32544
2018-02-08T13:55:52.019Z,29024
2018-02-08T13:56:54.439Z,30176
2018-02-08T13:57:56.875Z,32640
2018-02-08T13:58:59.322Z,29472
2018-02-08T14:00:01.761Z,21568
2018-02-08T14:01:04.200Z,19232
2018-02-08T14:02:06.635Z,21440
2018-02-08T14:03:09.067Z,20480
2018-02-08T14:04:11.511Z,16396
2018-02-08T14:05:13.938Z,15628
2018-02-08T14:06:16.379Z,16668
2018-02-08T14:07:18.827Z,16704
2018-02-08T14:08:21.254Z,20672
2018-02-08T14:09:23.701Z,17792
2018-02-08T14:10:26.138Z,11192
2018-02-08T14:11:28.576Z,10820
2018-02-08T14:12:31.301Z,11360
2018-02-08T14:13:33.740Z,10308
2018-02-08T14:14:36.165Z,9412
2018-02-08T14:15:38.604Z,9236
2018-02-08T14:16:41.042Z,9220
2018-02-08T14:17:43.476Z,8168
2018-02-08T14:18:45.908Z,7684